Francisco Camaco — CULX2 — position and weather

sailwx.info

Track history (hours):
 
Tides and Currents Weather Stations Pressure Air Temp Water Temp Dewpoint Dewpoint Depression Visibility Wind Speed Wind Dir Waves Ship Positions

Francisco Camaco

Last reported at 2018-Aug-16 08:00 UTC. Time now 2018-Aug-16 08:01 UTC.
Position N 38°32' W 009°14'.

Length 23 m.

Type: Fishing. MMSI: 263431350.

Date/timePositionNaut miles runAvg speedWind from/ knotsBaromVisibWave heightAir tempDewpointWater temp
2018-Aug-16 08:00N 38°32' W 009°14'0 0.2
2018-Aug-16 07:30N 38°32' W 009°14'3 5.0
2018-Aug-16 07:00N 38°34' W 009°16'1 1.3
2018-Aug-16 06:29N 38°35' W 009°17'1 1.2
2018-Aug-16 06:01N 38°35' W 009°16'1 2.4
2018-Aug-16 05:30N 38°35' W 009°14'0 1.0
2018-Aug-16 05:01N 38°35' W 009°14'2 4.1
2018-Aug-16 04:30N 38°34' W 009°17'0 0.1
2018-Aug-16 04:00N 38°34' W 009°16'0 0.1
2018-Aug-16 03:30N 38°34' W 009°16'0 0.1
2018-Aug-16 02:59N 38°34' W 009°16'0 0.1
2018-Aug-16 02:30N 38°34' W 009°16'0 0.1
2018-Aug-16 02:00N 38°34' W 009°16'0 0.0
2018-Aug-16 01:29N 38°34' W 009°16'0 0.0
2018-Aug-16 00:59N 38°34' W 009°16'0 0.0
2018-Aug-16 00:30N 38°34' W 009°16'0 0.0
2018-Aug-15 23:59N 38°34' W 009°16'0 0.1
2018-Aug-15 23:30N 38°34' W 009°16'3 5.3
2018-Aug-15 23:00N 38°34' W 009°13'3 6.5
2018-Aug-15 22:29N 38°31' W 009°14'0 0.5
2018-Aug-15 22:00N 38°31' W 009°14'8 5.0
2018-Aug-15 20:25N 38°26' W 009°07'0 0.0
2018-Aug-14 16:19N 38°26' W 009°07'0 0.1
2018-Aug-14 16:00N 38°26' W 009°07'0 0.0
2018-Aug-14 15:30N 38°26' W 009°07'0 0.0
2018-Aug-14 15:00N 38°26' W 009°07'0 0.0
2018-Aug-14 14:30N 38°26' W 009°07'0 0.0
2018-Aug-14 14:00N 38°26' W 009°07'0 0.0
2018-Aug-14 13:30N 38°26' W 009°07'1 2.3
2018-Aug-14 13:00N 38°26' W 009°08'5 8.8
2018-Aug-14 12:29N 38°25' W 009°14'510.2
2018-Aug-14 12:00N 38°30' W 009°16'3 6.8
2018-Aug-14 11:30N 38°33' W 009°17'0 0.5
2018-Aug-14 11:00N 38°33' W 009°17'0 0.4
2018-Aug-14 10:29N 38°34' W 009°17'0 0.4
2018-Aug-14 10:00N 38°34' W 009°17'0 0.5
2018-Aug-14 09:30N 38°34' W 009°18'0 0.4
2018-Aug-14 09:00N 38°34' W 009°18'0 0.5
2018-Aug-14 08:30N 38°34' W 009°18'0 0.2
2018-Aug-14 08:00N 38°34' W 009°18'0 0.3
2018-Aug-14 07:29N 38°34' W 009°18'0 0.2
2018-Aug-14 07:00N 38°34' W 009°18'2 4.4
2018-Aug-14 06:30N 38°34' W 009°15'1 1.5
2018-Aug-14 06:00N 38°35' W 009°16'2 3.8
2018-Aug-14 05:29N 38°33' W 009°14'2 3.3
2018-Aug-14 05:00N 38°35' W 009°15'2 0.4
2018-Aug-13 23:57N 38°35' W 009°18'4 8.6
2018-Aug-13 23:30N 38°32' W 009°15'8 5.1
2018-Aug-13 21:51N 38°26' W 009°08'1 2.8
2018-Aug-13 21:30N 38°26' W 009°07'0 0.0
2018-Aug-13 21:00N 38°26' W 009°07'0 0.0
2018-Aug-13 16:54N 38°26' W 009°07'0 0.2
2018-Aug-13 16:30N 38°26' W 009°07'0 0.0
2018-Aug-13 16:00N 38°26' W 009°07'0 0.0
2018-Aug-13 15:29N 38°26' W 009°07'0 0.2
2018-Aug-13 15:00N 38°26' W 009°07'0 0.0
2018-Aug-13 14:30N 38°26' W 009°07'0 0.0
2018-Aug-13 14:00N 38°26' W 009°07'0 0.0
2018-Aug-13 13:30N 38°26' W 009°07'0 0.0
2018-Aug-13 13:00N 38°26' W 009°07'4 7.3
2018-Aug-13 12:30N 38°25' W 009°11'10 7.9
2018-Aug-13 11:13N 38°33' W 009°19'0 0.4
2018-Aug-13 10:57N 38°33' W 009°19'0 0.4
2018-Aug-13 10:30N 38°33' W 009°19'0 0.5
2018-Aug-13 10:00N 38°33' W 009°19'0 0.4
2018-Aug-13 09:30N 38°34' W 009°19'0 0.5
2018-Aug-13 08:54N 38°34' W 009°19'0 0.3
2018-Aug-13 08:30N 38°34' W 009°19'3 0.4
2018-Aug-13 00:59N 38°33' W 009°15'1 1.6
2018-Aug-13 00:30N 38°32' W 009°14'1 2.4
2018-Aug-12 23:59N 38°33' W 009°14'0 0.2
2018-Aug-12 23:30N 38°33' W 009°14'0 0.2
2018-Aug-12 23:00N 38°34' W 009°14'2 4.9
2018-Aug-12 22:30N 38°31' W 009°14'4 7.9
2018-Aug-12 22:00N 38°27' W 009°14'4 6.2
2018-Aug-12 21:19N 38°25' W 009°09'3 8.2
2018-Aug-12 21:00N 38°26' W 009°07'0 0.6
2018-Aug-12 20:30N 38°26' W 009°07'  
2018-Aug-10 14:42N 38°26' W 009°07'0 0.0
2018-Aug-10 14:30N 38°26' W 009°07'0 0.0
2018-Aug-10 14:01N 38°26' W 009°07'0 0.0
2018-Aug-10 13:30N 38°26' W 009°07'0 0.0
2018-Aug-10 13:01N 38°26' W 009°07'0 0.0
2018-Aug-10 12:31N 38°26' W 009°07'0 0.8
2018-Aug-10 12:00N 38°26' W 009°06'510.3
2018-Aug-10 11:31N 38°23' W 009°01'510.3
2018-Aug-10 11:00N 38°20' W 008°56'610.0
2018-Aug-10 10:23N 38°16' W 008°50'1 3.3
2018-Aug-10 10:01N 38°15' W 008°49'0 0.5
2018-Aug-10 09:31N 38°15' W 008°49'0 0.5
2018-Aug-10 09:00N 38°15' W 008°49'0 0.5
2018-Aug-10 08:30N 38°16' W 008°49'0 0.5
2018-Aug-10 08:01N 38°16' W 008°50'0 0.3
2018-Aug-10 07:30N 38°16' W 008°50'0 0.1
2018-Aug-10 07:01N 38°16' W 008°50'0 0.1
2018-Aug-10 06:14N 38°16' W 008°50'1 3.3
2018-Aug-10 05:59N 38°15' W 008°49'3 6.2
2018-Aug-10 05:31N 38°18' W 008°49'3 4.7
2018-Aug-10 04:57N 38°21' W 008°50'3 5.1
2018-Aug-10 04:23N 38°23' W 008°52'4 9.3
2018-Aug-10 03:59N 38°25' W 008°56'4 9.2
2018-Aug-10 03:30N 38°26' W 009°01'4 8.5
2018-Aug-10 03:01N 38°26' W 009°07'0 0.3
2018-Aug-10 02:30N 38°26' W 009°07'0 0.0
2018-Aug-10 01:55N 38°26' W 009°07'0 0.0
2018-Aug-09 23:10N 38°26' W 009°07'0 0.0
2018-Aug-09 23:01N 38°26' W 009°07'0 0.0
2018-Aug-09 18:03N 38°26' W 009°07'0 0.0
2018-Aug-09 18:00N 38°26' W 009°07'0 0.0
2018-Aug-09 12:37N 38°26' W 009°07'0 0.0
2018-Aug-09 12:30N 38°26' W 009°07'0 0.0
2018-Aug-09 12:01N 38°26' W 009°07'0 0.0
2018-Aug-09 11:30N 38°26' W 009°07'0 1.0
2018-Aug-09 11:00N 38°26' W 009°07'5 9.1
2018-Aug-09 10:30N 38°25' W 009°13'4 8.5
2018-Aug-09 09:59N 38°29' W 009°14'3 4.3
2018-Aug-09 09:17N 38°32' W 009°14'0 0.6
2018-Aug-09 08:59N 38°32' W 009°14'0 0.7
2018-Aug-09 08:28N 38°32' W 009°14'0 0.2
2018-Aug-09 07:57N 38°33' W 009°14'0 0.2
2018-Aug-09 07:30N 38°33' W 009°14'0 0.1
2018-Aug-09 07:00N 38°33' W 009°14'1 1.7
2018-Aug-09 06:29N 38°32' W 009°14'1 1.2
2018-Aug-09 05:55N 38°32' W 009°14'3 5.2
2018-Aug-09 05:20N 38°30' W 009°13'0 0.8
2018-Aug-09 04:59N 38°29' W 009°13'1 2.0
2018-Aug-09 04:28N 38°30' W 009°12'5 6.0
2018-Aug-09 03:40N 38°34' W 009°16'0 0.9
2018-Aug-09 03:30N 38°34' W 009°16'0 0.9
2018-Aug-09 03:00N 38°34' W 009°17'1 1.0
2018-Aug-09 02:28N 38°35' W 009°17'1 1.1
2018-Aug-09 02:00N 38°35' W 009°17'0 0.3
2018-Aug-09 01:27N 38°36' W 009°17'1 1.9
2018-Aug-09 01:00N 38°35' W 009°16'1 1.1
2018-Aug-09 00:28N 38°35' W 009°16'1 1.0
2018-Aug-08 23:55N 38°36' W 009°17'0 0.5
2018-Aug-08 23:27N 38°36' W 009°17'2 5.3
2018-Aug-08 22:59N 38°35' W 009°14'4 4.8
2018-Aug-08 22:11N 38°32' W 009°15'3 7.0
2018-Aug-08 21:47N 38°30' W 009°12'4 8.5
2018-Aug-08 21:19N 38°26' W 009°14'3 7.3
2018-Aug-08 20:54N 38°25' W 009°10'3 7.5
2018-Aug-08 20:31N 38°26' W 009°07'1 1.2
2018-Aug-08 20:00N 38°26' W 009°07'0 0.0
2018-Aug-08 12:57N 38°26' W 009°07'0 0.2
2018-Aug-08 12:30N 38°26' W 009°07'0 0.0
2018-Aug-08 12:00N 38°26' W 009°07'0 0.0
2018-Aug-08 11:30N 38°26' W 009°07'0 0.2
2018-Aug-08 11:00N 38°26' W 009°07'5 8.7
2018-Aug-08 10:29N 38°24' W 009°12'4 8.2
2018-Aug-08 10:00N 38°28' W 009°14'5 9.3
2018-Aug-08 09:30N 38°33' W 009°15'1 1.9
2018-Aug-08 09:00N 38°33' W 009°14'4 7.1
2018-Aug-08 08:30N 38°29' W 009°14'0 0.8
2018-Aug-08 07:59N 38°29' W 009°13'0 0.5
2018-Aug-08 07:30N 38°29' W 009°14'0 0.3
2018-Aug-08 06:59N 38°29' W 009°14'0 0.0
2018-Aug-08 06:30N 38°29' W 009°14'0 0.2
2018-Aug-08 05:59N 38°29' W 009°14'1 3.0
2018-Aug-08 05:30N 38°31' W 009°13'4 8.2
2018-Aug-08 05:00N 38°34' W 009°15'1 1.6
2018-Aug-08 04:30N 38°35' W 009°15'1 1.7
2018-Aug-08 03:59N 38°35' W 009°16'0 0.4
2018-Aug-08 03:30N 38°35' W 009°16'0 0.7
2018-Aug-08 02:58N 38°36' W 009°16'0 0.8
2018-Aug-08 02:30N 38°36' W 009°16'0 0.3
2018-Aug-08 02:00N 38°36' W 009°16'4 8.1
2018-Aug-08 01:30N 38°32' W 009°14'4 7.2
2018-Aug-08 00:57N 38°28' W 009°14'4 8.3
2018-Aug-08 00:30N 38°25' W 009°13'4 8.3
2018-Aug-08 00:00N 38°26' W 009°08'1 2.6
2018-Aug-07 23:30N 38°26' W 009°07'0 0.0
2018-Aug-07 15:41N 38°26' W 009°07'0 0.0
2018-Aug-07 11:18N 38°26' W 009°07'0 0.2
2018-Aug-07 11:00N 38°26' W 009°07'0 0.0
2018-Aug-07 10:29N 38°26' W 009°07'2 5.1
2018-Aug-07 10:00N 38°25' W 009°04'5 9.5
2018-Aug-07 09:28N 38°23' W 008°58'4 9.3
2018-Aug-07 08:59N 38°20' W 008°54'3 7.0
2018-Aug-07 08:30N 38°18' W 008°51'0 0.7
2018-Aug-07 08:00N 38°18' W 008°51'0 0.5
2018-Aug-07 07:29N 38°18' W 008°51'0 0.1
2018-Aug-07 06:47N 38°18' W 008°51'0 0.2
2018-Aug-07 06:28N 38°18' W 008°51'1 1.4
2018-Aug-07 06:00N 38°18' W 008°50'2 2.8
2018-Aug-07 05:28N 38°19' W 008°50'1 1.9
2018-Aug-07 05:00N 38°18' W 008°49'4 7.6
2018-Aug-07 04:30N 38°22' W 008°51'1 1.9
2018-Aug-07 04:00N 38°23' W 008°52'2 4.3
2018-Aug-07 03:30N 38°25' W 008°53'4 8.3
2018-Aug-07 03:00N 38°25' W 008°59'4 8.0
2018-Aug-07 02:30N 38°25' W 009°04'3 5.7
2018-Aug-07 02:00N 38°26' W 009°07'0 0.0
2018-Aug-07 01:30N 38°26' W 009°07'0 0.0
2018-Aug-06 20:09N 38°26' W 009°07'0 0.0
2018-Aug-06 20:00N 38°26' W 009°07'0 0.0
2018-Aug-06 19:30N 38°26' W 009°07'1 1.4
2018-Aug-06 19:00N 38°26' W 009°06'1 1.4
2018-Aug-06 18:30N 38°25' W 009°07'1 2.7
2018-Aug-06 18:00N 38°26' W 009°07'0 0.0
2018-Aug-06 17:30N 38°26' W 009°07'0 0.0
2018-Aug-06 17:00N 38°26' W 009°07'0 0.0
2018-Aug-06 16:31N 38°26' W 009°07'0 0.0
2018-Aug-06 15:59N 38°26' W 009°07'0 0.0
2018-Aug-06 15:30N 38°26' W 009°07'0 0.0
2018-Aug-06 14:59N 38°26' W 009°07'4 8.0
2018-Aug-06 14:31N 38°25' W 009°11'4 7.7
2018-Aug-06 14:01N 38°28' W 009°14'510.0
2018-Aug-06 13:31N 38°33' W 009°15'2 3.5
2018-Aug-06 13:00N 38°34' W 009°15'0 0.4
2018-Aug-06 12:30N 38°35' W 009°15'  
Track history (hours):
 
Tides and Currents Weather Stations Pressure Air Temp Water Temp Dewpoint Dewpoint Depression Visibility Wind Speed Wind Dir Waves Ship Positions

Francisco Camaco

Last reported at 2018-Aug-16 08:00 UTC. Time now 2018-Aug-16 08:01 UTC.
Position N 38°32' W 009°14'.

Length 23 m.

Type: Fishing. MMSI: 263431350.

Date/timePositionNaut miles runAvg speedWind from/ knotsBaromVisibWave heightAir tempDewpointWater temp
2018-Aug-16 08:00N 38°32' W 009°14'0 0.2
2018-Aug-16 07:30N 38°32' W 009°14'3 5.0
2018-Aug-16 07:00N 38°34' W 009°16'1 1.3
2018-Aug-16 06:29N 38°35' W 009°17'1 1.2
2018-Aug-16 06:01N 38°35' W 009°16'1 2.4
2018-Aug-16 05:30N 38°35' W 009°14'0 1.0
2018-Aug-16 05:01N 38°35' W 009°14'2 4.1
2018-Aug-16 04:30N 38°34' W 009°17'0 0.1
2018-Aug-16 04:00N 38°34' W 009°16'0 0.1
2018-Aug-16 03:30N 38°34' W 009°16'0 0.1
2018-Aug-16 02:59N 38°34' W 009°16'0 0.1
2018-Aug-16 02:30N 38°34' W 009°16'0 0.1
2018-Aug-16 02:00N 38°34' W 009°16'0 0.0
2018-Aug-16 01:29N 38°34' W 009°16'0 0.0
2018-Aug-16 00:59N 38°34' W 009°16'0 0.0
2018-Aug-16 00:30N 38°34' W 009°16'0 0.0
2018-Aug-15 23:59N 38°34' W 009°16'0 0.1
2018-Aug-15 23:30N 38°34' W 009°16'3 5.3
2018-Aug-15 23:00N 38°34' W 009°13'3 6.5
2018-Aug-15 22:29N 38°31' W 009°14'0 0.5
2018-Aug-15 22:00N 38°31' W 009°14'8 5.0
2018-Aug-15 20:25N 38°26' W 009°07'0 0.0
2018-Aug-14 16:19N 38°26' W 009°07'0 0.1
2018-Aug-14 16:00N 38°26' W 009°07'0 0.0
2018-Aug-14 15:30N 38°26' W 009°07'0 0.0
2018-Aug-14 15:00N 38°26' W 009°07'0 0.0
2018-Aug-14 14:30N 38°26' W 009°07'0 0.0
2018-Aug-14 14:00N 38°26' W 009°07'0 0.0
2018-Aug-14 13:30N 38°26' W 009°07'1 2.3
2018-Aug-14 13:00N 38°26' W 009°08'5 8.8
2018-Aug-14 12:29N 38°25' W 009°14'510.2
2018-Aug-14 12:00N 38°30' W 009°16'3 6.8
2018-Aug-14 11:30N 38°33' W 009°17'0 0.5
2018-Aug-14 11:00N 38°33' W 009°17'0 0.4
2018-Aug-14 10:29N 38°34' W 009°17'0 0.4
2018-Aug-14 10:00N 38°34' W 009°17'0 0.5
2018-Aug-14 09:30N 38°34' W 009°18'0 0.4
2018-Aug-14 09:00N 38°34' W 009°18'0 0.5
2018-Aug-14 08:30N 38°34' W 009°18'0 0.2
2018-Aug-14 08:00N 38°34' W 009°18'0 0.3
2018-Aug-14 07:29N 38°34' W 009°18'0 0.2
2018-Aug-14 07:00N 38°34' W 009°18'2 4.4
2018-Aug-14 06:30N 38°34' W 009°15'1 1.5
2018-Aug-14 06:00N 38°35' W 009°16'2 3.8
2018-Aug-14 05:29N 38°33' W 009°14'2 3.3
2018-Aug-14 05:00N 38°35' W 009°15'2 0.4
2018-Aug-13 23:57N 38°35' W 009°18'4 8.6
2018-Aug-13 23:30N 38°32' W 009°15'8 5.1
2018-Aug-13 21:51N 38°26' W 009°08'1 2.8
2018-Aug-13 21:30N 38°26' W 009°07'0 0.0
2018-Aug-13 21:00N 38°26' W 009°07'0 0.0
2018-Aug-13 16:54N 38°26' W 009°07'0 0.2
2018-Aug-13 16:30N 38°26' W 009°07'0 0.0
2018-Aug-13 16:00N 38°26' W 009°07'0 0.0
2018-Aug-13 15:29N 38°26' W 009°07'0 0.2
2018-Aug-13 15:00N 38°26' W 009°07'0 0.0
2018-Aug-13 14:30N 38°26' W 009°07'0 0.0
2018-Aug-13 14:00N 38°26' W 009°07'0 0.0
2018-Aug-13 13:30N 38°26' W 009°07'0 0.0
2018-Aug-13 13:00N 38°26' W 009°07'4 7.3
2018-Aug-13 12:30N 38°25' W 009°11'10 7.9
2018-Aug-13 11:13N 38°33' W 009°19'0 0.4
2018-Aug-13 10:57N 38°33' W 009°19'0 0.4
2018-Aug-13 10:30N 38°33' W 009°19'0 0.5
2018-Aug-13 10:00N 38°33' W 009°19'0 0.4
2018-Aug-13 09:30N 38°34' W 009°19'0 0.5
2018-Aug-13 08:54N 38°34' W 009°19'0 0.3
2018-Aug-13 08:30N 38°34' W 009°19'3 0.4
2018-Aug-13 00:59N 38°33' W 009°15'1 1.6
2018-Aug-13 00:30N 38°32' W 009°14'1 2.4
2018-Aug-12 23:59N 38°33' W 009°14'0 0.2
2018-Aug-12 23:30N 38°33' W 009°14'0 0.2
2018-Aug-12 23:00N 38°34' W 009°14'2 4.9
2018-Aug-12 22:30N 38°31' W 009°14'4 7.9
2018-Aug-12 22:00N 38°27' W 009°14'4 6.2
2018-Aug-12 21:19N 38°25' W 009°09'3 8.2
2018-Aug-12 21:00N 38°26' W 009°07'0 0.6
2018-Aug-12 20:30N 38°26' W 009°07'  
2018-Aug-10 14:42N 38°26' W 009°07'0 0.0
2018-Aug-10 14:30N 38°26' W 009°07'0 0.0
2018-Aug-10 14:01N 38°26' W 009°07'0 0.0
2018-Aug-10 13:30N 38°26' W 009°07'0 0.0
2018-Aug-10 13:01N 38°26' W 009°07'0 0.0
2018-Aug-10 12:31N 38°26' W 009°07'0 0.8
2018-Aug-10 12:00N 38°26' W 009°06'510.3
2018-Aug-10 11:31N 38°23' W 009°01'510.3
2018-Aug-10 11:00N 38°20' W 008°56'610.0
2018-Aug-10 10:23N 38°16' W 008°50'1 3.3
2018-Aug-10 10:01N 38°15' W 008°49'0 0.5
2018-Aug-10 09:31N 38°15' W 008°49'0 0.5
2018-Aug-10 09:00N 38°15' W 008°49'0 0.5
2018-Aug-10 08:30N 38°16' W 008°49'0 0.5
2018-Aug-10 08:01N 38°16' W 008°50'0 0.3
2018-Aug-10 07:30N 38°16' W 008°50'0 0.1
2018-Aug-10 07:01N 38°16' W 008°50'0 0.1
2018-Aug-10 06:14N 38°16' W 008°50'1 3.3
2018-Aug-10 05:59N 38°15' W 008°49'3 6.2
2018-Aug-10 05:31N 38°18' W 008°49'3 4.7
2018-Aug-10 04:57N 38°21' W 008°50'3 5.1
2018-Aug-10 04:23N 38°23' W 008°52'4 9.3
2018-Aug-10 03:59N 38°25' W 008°56'4 9.2
2018-Aug-10 03:30N 38°26' W 009°01'4 8.5
2018-Aug-10 03:01N 38°26' W 009°07'0 0.3
2018-Aug-10 02:30N 38°26' W 009°07'0 0.0
2018-Aug-10 01:55N 38°26' W 009°07'0 0.0
2018-Aug-09 23:10N 38°26' W 009°07'0 0.0
2018-Aug-09 23:01N 38°26' W 009°07'0 0.0
2018-Aug-09 18:03N 38°26' W 009°07'0 0.0
2018-Aug-09 18:00N 38°26' W 009°07'0 0.0
2018-Aug-09 12:37N 38°26' W 009°07'0 0.0
2018-Aug-09 12:30N 38°26' W 009°07'0 0.0
2018-Aug-09 12:01N 38°26' W 009°07'0 0.0
2018-Aug-09 11:30N 38°26' W 009°07'0 1.0
2018-Aug-09 11:00N 38°26' W 009°07'5 9.1
2018-Aug-09 10:30N 38°25' W 009°13'4 8.5
2018-Aug-09 09:59N 38°29' W 009°14'3 4.3
2018-Aug-09 09:17N 38°32' W 009°14'0 0.6
2018-Aug-09 08:59N 38°32' W 009°14'0 0.7
2018-Aug-09 08:28N 38°32' W 009°14'0 0.2
2018-Aug-09 07:57N 38°33' W 009°14'0 0.2
2018-Aug-09 07:30N 38°33' W 009°14'0 0.1
2018-Aug-09 07:00N 38°33' W 009°14'1 1.7
2018-Aug-09 06:29N 38°32' W 009°14'1 1.2
2018-Aug-09 05:55N 38°32' W 009°14'3 5.2
2018-Aug-09 05:20N 38°30' W 009°13'0 0.8
2018-Aug-09 04:59N 38°29' W 009°13'1 2.0
2018-Aug-09 04:28N 38°30' W 009°12'5 6.0
2018-Aug-09 03:40N 38°34' W 009°16'0 0.9
2018-Aug-09 03:30N 38°34' W 009°16'0 0.9
2018-Aug-09 03:00N 38°34' W 009°17'1 1.0
2018-Aug-09 02:28N 38°35' W 009°17'1 1.1
2018-Aug-09 02:00N 38°35' W 009°17'0 0.3
2018-Aug-09 01:27N 38°36' W 009°17'1 1.9
2018-Aug-09 01:00N 38°35' W 009°16'1 1.1
2018-Aug-09 00:28N 38°35' W 009°16'1 1.0
2018-Aug-08 23:55N 38°36' W 009°17'0 0.5
2018-Aug-08 23:27N 38°36' W 009°17'2 5.3
2018-Aug-08 22:59N 38°35' W 009°14'4 4.8
2018-Aug-08 22:11N 38°32' W 009°15'3 7.0
2018-Aug-08 21:47N 38°30' W 009°12'4 8.5
2018-Aug-08 21:19N 38°26' W 009°14'3 7.3
2018-Aug-08 20:54N 38°25' W 009°10'3 7.5
2018-Aug-08 20:31N 38°26' W 009°07'1 1.2
2018-Aug-08 20:00N 38°26' W 009°07'0 0.0
2018-Aug-08 12:57N 38°26' W 009°07'0 0.2
2018-Aug-08 12:30N 38°26' W 009°07'0 0.0
2018-Aug-08 12:00N 38°26' W 009°07'0 0.0
2018-Aug-08 11:30N 38°26' W 009°07'0 0.2
2018-Aug-08 11:00N 38°26' W 009°07'5 8.7
2018-Aug-08 10:29N 38°24' W 009°12'4 8.2
2018-Aug-08 10:00N 38°28' W 009°14'5 9.3
2018-Aug-08 09:30N 38°33' W 009°15'1 1.9
2018-Aug-08 09:00N 38°33' W 009°14'4 7.1
2018-Aug-08 08:30N 38°29' W 009°14'0 0.8
2018-Aug-08 07:59N 38°29' W 009°13'0 0.5
2018-Aug-08 07:30N 38°29' W 009°14'0 0.3
2018-Aug-08 06:59N 38°29' W 009°14'0 0.0
2018-Aug-08 06:30N 38°29' W 009°14'0 0.2
2018-Aug-08 05:59N 38°29' W 009°14'1 3.0
2018-Aug-08 05:30N 38°31' W 009°13'4 8.2
2018-Aug-08 05:00N 38°34' W 009°15'1 1.6
2018-Aug-08 04:30N 38°35' W 009°15'1 1.7
2018-Aug-08 03:59N 38°35' W 009°16'0 0.4
2018-Aug-08 03:30N 38°35' W 009°16'0 0.7
2018-Aug-08 02:58N 38°36' W 009°16'0 0.8
2018-Aug-08 02:30N 38°36' W 009°16'0 0.3
2018-Aug-08 02:00N 38°36' W 009°16'4 8.1
2018-Aug-08 01:30N 38°32' W 009°14'4 7.2
2018-Aug-08 00:57N 38°28' W 009°14'4 8.3
2018-Aug-08 00:30N 38°25' W 009°13'4 8.3
2018-Aug-08 00:00N 38°26' W 009°08'1 2.6
2018-Aug-07 23:30N 38°26' W 009°07'0 0.0
2018-Aug-07 15:41N 38°26' W 009°07'0 0.0
2018-Aug-07 11:18N 38°26' W 009°07'0 0.2
2018-Aug-07 11:00N 38°26' W 009°07'0 0.0
2018-Aug-07 10:29N 38°26' W 009°07'2 5.1
2018-Aug-07 10:00N 38°25' W 009°04'5 9.5
2018-Aug-07 09:28N 38°23' W 008°58'4 9.3
2018-Aug-07 08:59N 38°20' W 008°54'3 7.0
2018-Aug-07 08:30N 38°18' W 008°51'0 0.7
2018-Aug-07 08:00N 38°18' W 008°51'0 0.5
2018-Aug-07 07:29N 38°18' W 008°51'0 0.1
2018-Aug-07 06:47N 38°18' W 008°51'0 0.2
2018-Aug-07 06:28N 38°18' W 008°51'1 1.4
2018-Aug-07 06:00N 38°18' W 008°50'2 2.8
2018-Aug-07 05:28N 38°19' W 008°50'1 1.9
2018-Aug-07 05:00N 38°18' W 008°49'4 7.6
2018-Aug-07 04:30N 38°22' W 008°51'1 1.9
2018-Aug-07 04:00N 38°23' W 008°52'2 4.3
2018-Aug-07 03:30N 38°25' W 008°53'4 8.3
2018-Aug-07 03:00N 38°25' W 008°59'4 8.0
2018-Aug-07 02:30N 38°25' W 009°04'3 5.7
2018-Aug-07 02:00N 38°26' W 009°07'0 0.0
2018-Aug-07 01:30N 38°26' W 009°07'0 0.0
2018-Aug-06 20:09N 38°26' W 009°07'0 0.0
2018-Aug-06 20:00N 38°26' W 009°07'0 0.0
2018-Aug-06 19:30N 38°26' W 009°07'1 1.4
2018-Aug-06 19:00N 38°26' W 009°06'1 1.4
2018-Aug-06 18:30N 38°25' W 009°07'1 2.7
2018-Aug-06 18:00N 38°26' W 009°07'0 0.0
2018-Aug-06 17:30N 38°26' W 009°07'0 0.0
2018-Aug-06 17:00N 38°26' W 009°07'0 0.0
2018-Aug-06 16:31N 38°26' W 009°07'0 0.0
2018-Aug-06 15:59N 38°26' W 009°07'0 0.0
2018-Aug-06 15:30N 38°26' W 009°07'0 0.0
2018-Aug-06 14:59N 38°26' W 009°07'4 8.0
2018-Aug-06 14:31N 38°25' W 009°11'4 7.7
2018-Aug-06 14:01N 38°28' W 009°14'510.0
2018-Aug-06 13:31N 38°33' W 009°15'2 3.5
2018-Aug-06 13:00N 38°34' W 009°15'0 0.4
2018-Aug-06 12:30N 38°35' W 009°15'  

Dump ship's entire track history